createdAt,value
2022-11-24T00:02:03.714Z,80.57
2022-11-24T00:04:32.086Z,80.30
2022-11-24T00:07:00.344Z,80.10
2022-11-24T00:09:33.957Z,80.49
2022-11-24T00:12:06.748Z,80.76
2022-11-24T00:14:37.646Z,80.71
2022-11-24T00:17:05.743Z,81.07
2022-11-24T00:19:33.907Z,81.02
2022-11-24T00:22:07.948Z,80.89
2022-11-24T00:24:38.390Z,80.73
2022-11-24T00:27:10.488Z,81.17
2022-11-24T00:29:38.604Z,80.99
2022-11-24T00:32:07.152Z,81.45
2022-11-24T00:34:42.026Z,81.08
2022-11-24T00:37:09.951Z,81.11
2022-11-24T00:39:41.092Z,81.69
2022-11-24T00:42:18.607Z,81.08
2022-11-24T00:44:46.667Z,81.54
2022-11-24T00:47:17.894Z,81.02
2022-11-24T00:49:46.120Z,81.42
2022-11-24T00:52:14.181Z,81.64
2022-11-24T00:54:49.801Z,81.04
2022-11-24T00:57:22.377Z,81.73
2022-11-24T00:59:50.346Z,81.63
2022-11-24T01:02:19.984Z,81.29
2022-11-24T01:04:48.020Z,81.14
2022-11-24T01:07:16.210Z,81.82
2022-11-24T01:09:47.179Z,81.95
2022-11-24T01:12:15.491Z,81.69
2022-11-24T01:15:12.702Z,81.36
2022-11-24T01:17:40.748Z,81.33
2022-11-24T01:20:12.094Z,81.25
2022-11-24T01:22:41.603Z,81.33
2022-11-24T01:25:11.064Z,81.41
2022-11-24T01:27:39.604Z,81.09
2022-11-24T01:30:11.104Z,80.78
2022-11-24T01:32:39.229Z,80.95
2022-11-24T01:35:10.391Z,80.78
2022-11-24T01:37:41.440Z,81.27
2022-11-24T01:40:11.632Z,81.38
2022-11-24T01:42:48.277Z,81.22
2022-11-24T01:45:35.136Z,81.40
2022-11-24T01:48:08.900Z,81.44
2022-11-24T01:50:37.638Z,81.90
2022-11-24T01:53:06.367Z,82.46
2022-11-24T01:55:39.002Z,82.15
2022-11-24T01:58:11.125Z,82.09
2022-11-24T02:00:45.272Z,81.98
2022-11-24T02:03:18.725Z,82.42
2022-11-24T02:05:59.716Z,81.65
2022-11-24T02:08:34.080Z,81.74
2022-11-24T02:11:06.524Z,82.07
2022-11-24T02:13:39.841Z,81.69
2022-11-24T02:16:12.055Z,81.40
2022-11-24T02:18:41.332Z,81.60
2022-11-24T02:21:10.721Z,81.11
2022-11-24T02:23:45.968Z,81.40
2022-11-24T02:26:23.531Z,81.26
2022-11-24T02:28:53.957Z,81.63
2022-11-24T02:31:22.203Z,81.31
2022-11-24T02:33:56.293Z,80.96
2022-11-24T02:36:33.328Z,81.20
2022-11-24T02:39:01.345Z,81.07
2022-11-24T02:41:30.158Z,80.86
2022-11-24T02:44:03.347Z,81.11
2022-11-24T02:46:31.362Z,81.23
2022-11-24T02:48:59.352Z,80.98
2022-11-24T02:51:28.061Z,81.09
2022-11-24T02:53:56.038Z,80.59
2022-11-24T02:56:26.721Z,80.76
2022-11-24T02:58:54.856Z,80.58
2022-11-24T03:01:24.516Z,80.69
2022-11-24T03:04:00.797Z,80.95
2022-11-24T03:06:28.757Z,80.73
2022-11-24T03:08:56.796Z,80.74
2022-11-24T03:11:26.042Z,80.88
2022-11-24T03:13:54.036Z,80.77
2022-11-24T03:16:22.188Z,80.73
2022-11-24T03:18:53.701Z,80.66
2022-11-24T03:21:25.689Z,80.97
2022-11-24T03:24:02.466Z,81.09
2022-11-24T03:26:36.938Z,80.97
2022-11-24T03:29:05.306Z,81.44
2022-11-24T03:31:33.427Z,81.24
2022-11-24T03:34:03.269Z,80.98
2022-11-24T03:36:39.825Z,81.17
2022-11-24T03:39:08.461Z,80.60
2022-11-24T03:41:54.756Z,80.85
2022-11-24T03:44:23.063Z,81.12
2022-11-24T03:46:54.182Z,80.95
2022-11-24T03:49:26.205Z,80.88
2022-11-24T03:51:57.237Z,81.22
2022-11-24T03:54:25.473Z,81.01
2022-11-24T03:56:58.529Z,81.50
2022-11-24T03:59:26.564Z,80.63
2022-11-24T04:01:55.047Z,81.07
2022-11-24T04:04:32.732Z,80.94
2022-11-24T04:07:00.935Z,81.17
2022-11-24T04:09:29.128Z,81.40
2022-11-24T04:12:17.437Z,81.15
2022-11-24T04:14:45.302Z,81.05
2022-11-24T04:17:15.461Z,81.45
2022-11-24T04:19:44.660Z,81.41
2022-11-24T04:22:12.924Z,80.76
2022-11-24T04:24:41.956Z,81.59
2022-11-24T04:27:09.981Z,81.68
2022-11-24T04:29:50.432Z,81.65
2022-11-24T04:32:20.627Z,81.89
2022-11-24T04:34:49.976Z,81.94
2022-11-24T04:37:18.242Z,82.19
2022-11-24T04:39:46.391Z,81.90
2022-11-24T04:42:17.654Z,81.98
2022-11-24T04:44:45.577Z,82.12
2022-11-24T04:47:17.123Z,81.59
2022-11-24T04:49:45.060Z,81.80
2022-11-24T04:52:21.719Z,81.67
2022-11-24T04:54:50.583Z,81.73
2022-11-24T04:57:20.523Z,81.47
2022-11-24T04:59:48.464Z,81.51
2022-11-24T05:02:16.409Z,81.35
2022-11-24T05:04:44.366Z,82.01
2022-11-24T05:07:18.853Z,81.89
2022-11-24T05:10:06.557Z,82.00
2022-11-24T05:12:45.854Z,82.39
2022-11-24T05:15:20.229Z,82.23
2022-11-24T05:17:50.196Z,83.00
2022-11-24T05:20:18.510Z,82.84
2022-11-24T05:22:46.630Z,82.66
2022-11-24T05:25:16.294Z,82.42
2022-11-24T05:27:44.197Z,82.41
2022-11-24T05:30:14.894Z,82.62
2022-11-24T05:32:42.751Z,82.72
2022-11-24T05:35:11.124Z,82.83
2022-11-24T05:37:41.793Z,83.03
2022-11-24T05:40:10.540Z,82.95
2022-11-24T05:42:47.313Z,83.09
2022-11-24T05:45:20.383Z,82.85
2022-11-24T05:47:49.622Z,83.54
2022-11-24T05:50:19.121Z,83.90
2022-11-24T05:52:47.447Z,83.42
2022-11-24T05:55:16.414Z,83.42
2022-11-24T05:58:09.202Z,83.11
2022-11-24T06:00:37.793Z,83.03
2022-11-24T06:03:05.811Z,83.02
2022-11-24T06:05:38.843Z,83.14
2022-11-24T06:08:06.749Z,82.89
2022-11-24T06:10:36.953Z,82.80
2022-11-24T06:13:08.657Z,82.32
2022-11-24T06:15:38.654Z,82.57
2022-11-24T06:18:06.761Z,82.14
2022-11-24T06:20:34.593Z,81.81
2022-11-24T06:23:05.495Z,81.71
2022-11-24T06:25:33.638Z,81.64
2022-11-24T06:28:04.868Z,82.19
2022-11-24T06:30:36.732Z,82.40
2022-11-24T06:33:04.662Z,82.72
2022-11-24T06:35:32.727Z,82.22
2022-11-24T06:38:00.713Z,82.53
2022-11-24T06:40:28.806Z,82.76
2022-11-24T06:42:57.119Z,82.72
2022-11-24T06:45:25.135Z,82.58
2022-11-24T06:47:56.774Z,82.91
2022-11-24T06:50:29.208Z,82.61
2022-11-24T06:53:00.149Z,81.98
2022-11-24T06:55:28.474Z,81.97
2022-11-24T06:57:56.311Z,81.73
2022-11-24T07:00:25.173Z,81.39
2022-11-24T07:02:53.074Z,81.44
2022-11-24T07:05:22.394Z,81.50
2022-11-24T07:07:51.220Z,81.72
2022-11-24T07:10:20.037Z,81.97
2022-11-24T07:12:48.061Z,81.88
2022-11-24T07:15:21.711Z,82.06
2022-11-24T07:17:49.568Z,81.90
2022-11-24T07:20:17.967Z,81.90
2022-11-24T07:22:47.455Z,81.91
2022-11-24T07:25:21.128Z,81.37
2022-11-24T07:27:49.000Z,81.52
2022-11-24T07:30:20.045Z,81.68
2022-11-24T07:32:48.195Z,81.62
2022-11-24T07:35:22.154Z,81.06
2022-11-24T07:37:53.985Z,81.61
2022-11-24T07:40:21.916Z,82.03
2022-11-24T07:42:49.949Z,81.89
2022-11-24T07:45:18.101Z,81.89
2022-11-24T07:47:46.101Z,82.28
2022-11-24T07:50:14.033Z,82.14
2022-11-24T07:52:44.175Z,82.02
2022-11-24T07:55:13.591Z,81.79
2022-11-24T07:57:44.532Z,81.55
2022-11-24T08:00:13.645Z,81.46
2022-11-24T08:02:47.534Z,81.34
2022-11-24T08:05:18.442Z,81.41
2022-11-24T08:07:46.470Z,80.95
2022-11-24T08:10:21.611Z,81.44
2022-11-24T08:12:49.574Z,81.64
2022-11-24T08:15:20.585Z,81.55
2022-11-24T08:17:48.456Z,82.09
2022-11-24T08:20:16.593Z,82.09
2022-11-24T08:22:44.897Z,81.84
2022-11-24T08:25:15.241Z,82.42
2022-11-24T08:27:44.665Z,82.23
2022-11-24T08:30:16.528Z,82.13
2022-11-24T08:32:44.369Z,81.58
2022-11-24T08:35:16.531Z,81.83
2022-11-24T08:37:44.848Z,81.57
2022-11-24T08:40:14.394Z,81.55
2022-11-24T08:42:42.434Z,81.78
2022-11-24T08:45:24.703Z,81.97
2022-11-24T08:47:54.823Z,81.67
2022-11-24T08:50:23.531Z,81.92
2022-11-24T08:52:54.957Z,81.69
2022-11-24T08:55:22.947Z,81.32
2022-11-24T08:57:50.729Z,81.16
2022-11-24T09:00:24.066Z,80.80
2022-11-24T09:02:59.534Z,81.12
2022-11-24T09:05:51.260Z,81.20
2022-11-24T09:08:15.235Z,80.56
2022-11-24T09:10:43.083Z,80.05
2022-11-24T09:13:10.969Z,79.96
2022-11-24T09:15:40.236Z,79.68
2022-11-24T09:18:08.297Z,79.22
2022-11-24T09:20:38.344Z,79.18
2022-11-24T09:23:06.288Z,79.47
2022-11-24T09:25:34.253Z,78.65
2022-11-24T09:28:02.227Z,78.87
2022-11-24T09:30:30.357Z,78.71
2022-11-24T09:33:00.567Z,79.36
2022-11-24T09:35:31.887Z,78.70
2022-11-24T09:37:59.695Z,79.05
2022-11-24T09:40:28.032Z,79.20
2022-11-24T09:43:02.708Z,78.57
2022-11-24T09:46:04.877Z,79.19
2022-11-24T09:48:51.722Z,79.54
2022-11-24T09:51:24.972Z,79.62
2022-11-24T09:53:59.032Z,79.85
2022-11-24T09:56:31.726Z,80.40
2022-11-24T09:59:03.843Z,80.64
2022-11-24T10:01:43.442Z,81.11
2022-11-24T10:04:17.695Z,80.80
2022-11-24T10:06:52.155Z,81.56
2022-11-24T10:09:49.719Z,81.32
2022-11-24T10:12:37.854Z,81.28
2022-11-24T10:15:28.838Z,81.11
2022-11-24T10:18:16.416Z,81.52
2022-11-24T10:20:56.804Z,80.81
2022-11-24T10:23:40.825Z,81.30
2022-11-24T10:26:16.963Z,80.86
2022-11-24T10:28:54.704Z,80.59
2022-11-24T10:31:31.840Z,80.70
2022-11-24T10:34:03.982Z,80.73
2022-11-24T10:36:44.517Z,80.51
2022-11-24T10:39:20.423Z,79.69
2022-11-24T10:41:53.594Z,79.36
2022-11-24T10:44:30.609Z,79.47
2022-11-24T10:46:59.330Z,78.83
2022-11-24T10:49:34.395Z,78.87
2022-11-24T10:52:09.464Z,79.04
2022-11-24T10:55:03.309Z,78.18
2022-11-24T10:57:33.907Z,77.16
2022-11-24T11:00:03.467Z,77.96
2022-11-24T11:02:38.040Z,77.74
2022-11-24T11:05:38.096Z,77.75
2022-11-24T11:08:25.849Z,77.18
2022-11-24T11:11:31.026Z,76.55
2022-11-24T11:14:04.728Z,77.28
2022-11-24T11:16:38.192Z,76.96
2022-11-24T11:22:25.865Z,76.43
2022-11-24T11:25:21.811Z,76.52
2022-11-24T11:27:51.662Z,75.95
2022-11-24T11:36:15.100Z,76.33
2022-11-24T11:38:44.993Z,76.82
2022-11-24T11:41:21.670Z,76.10
2022-11-24T11:43:55.792Z,76.18
2022-11-24T11:46:51.611Z,76.68
2022-11-24T11:49:22.127Z,76.92
2022-11-24T11:52:05.059Z,77.11
2022-11-24T11:54:50.746Z,77.27
2022-11-24T11:57:28.225Z,76.96
2022-11-24T12:00:10.636Z,77.16
2022-11-24T12:02:56.680Z,77.32
2022-11-24T12:05:32.170Z,77.64
2022-11-24T12:08:21.551Z,78.02
2022-11-24T12:10:57.169Z,77.69
2022-11-24T12:13:53.972Z,77.52
2022-11-24T12:16:31.279Z,77.90
2022-11-24T12:19:32.381Z,77.25
2022-11-24T12:22:10.215Z,77.26
2022-11-24T12:24:51.220Z,78.20
2022-11-24T12:27:30.235Z,77.83
2022-11-24T12:30:11.715Z,78.36
2022-11-24T12:33:10.043Z,77.74
2022-11-24T12:35:41.157Z,78.23
2022-11-24T12:38:38.537Z,77.70
2022-11-24T12:41:41.124Z,78.14
2022-11-24T12:44:22.014Z,77.38
2022-11-24T12:47:03.108Z,77.10
2022-11-24T12:49:40.137Z,76.44
2022-11-24T12:52:17.873Z,76.90
2022-11-24T12:54:45.705Z,76.33
2022-11-24T12:57:22.143Z,76.55
2022-11-24T12:59:58.840Z,75.82
2022-11-24T13:02:39.567Z,76.15
2022-11-24T13:05:23.547Z,76.70
2022-11-24T13:07:58.196Z,76.67
2022-11-24T13:10:58.057Z,76.57
2022-11-24T13:13:31.343Z,76.72
2022-11-24T13:19:14.758Z,77.12
2022-11-24T13:21:57.627Z,77.49
2022-11-24T13:24:30.897Z,77.61
2022-11-24T13:27:32.494Z,76.49
2022-11-24T13:30:01.246Z,76.71
2022-11-24T13:33:21.674Z,77.42
2022-11-24T13:36:24.920Z,77.40
2022-11-24T13:38:55.439Z,77.50
2022-11-24T13:42:43.367Z,77.33
2022-11-24T13:45:03.030Z,77.62
2022-11-24T13:47:40.214Z,77.88
2022-11-24T13:50:24.428Z,78.59
2022-11-24T13:53:08.388Z,78.15
2022-11-24T13:55:40.956Z,77.82
2022-11-24T13:58:31.663Z,77.78
2022-11-24T14:01:04.494Z,77.80
2022-11-24T14:03:36.480Z,77.67
2022-11-24T14:06:13.301Z,78.22
2022-11-24T14:08:41.244Z,78.39
2022-11-24T14:11:18.963Z,77.58
2022-11-24T14:13:54.404Z,78.23
2022-11-24T14:16:25.970Z,78.02
2022-11-24T14:18:53.862Z,78.12
2022-11-24T14:21:34.877Z,78.22
2022-11-24T14:26:57.163Z,77.83
2022-11-24T14:29:28.021Z,78.05
2022-11-24T14:32:01.011Z,78.88
2022-11-24T14:34:33.738Z,78.51
2022-11-24T14:37:04.435Z,78.40
2022-11-24T14:39:41.706Z,78.84
2022-11-24T14:42:18.803Z,78.86
2022-11-24T14:44:51.056Z,78.94
2022-11-24T14:47:30.461Z,78.90
2022-11-24T14:50:08.979Z,78.74
2022-11-24T14:52:37.884Z,78.97
2022-11-24T14:55:22.344Z,79.19
2022-11-24T14:57:55.553Z,79.27
2022-11-24T15:00:28.827Z,79.18
2022-11-24T15:03:20.406Z,79.09
2022-11-24T15:05:54.213Z,79.43
2022-11-24T15:08:23.545Z,78.93
2022-11-24T15:10:57.777Z,79.59
2022-11-24T15:13:27.157Z,79.62
2022-11-24T15:16:02.012Z,79.64
2022-11-24T15:18:41.984Z,80.06
2022-11-24T15:21:18.905Z,79.65
2022-11-24T15:24:06.066Z,79.14
2022-11-24T15:26:40.002Z,79.78
2022-11-24T15:29:11.525Z,80.22
2022-11-24T15:31:40.211Z,79.92
2022-11-24T15:34:08.673Z,79.31
2022-11-24T15:36:44.886Z,80.10
2022-11-24T15:39:12.846Z,80.27
2022-11-24T15:41:41.928Z,80.83
2022-11-24T15:44:19.125Z,80.43
2022-11-24T15:46:47.042Z,80.89
2022-11-24T15:49:15.082Z,81.57
2022-11-24T15:51:45.732Z,81.32
2022-11-24T15:54:18.521Z,81.55
2022-11-24T15:56:47.018Z,82.02
2022-11-24T15:59:20.180Z,81.29
2022-11-24T16:01:55.141Z,80.77
2022-11-24T16:04:23.010Z,81.03
2022-11-24T16:06:50.959Z,81.03
2022-11-24T16:09:22.067Z,79.89
2022-11-24T16:11:57.269Z,79.98
2022-11-24T16:14:26.877Z,79.78
2022-11-24T16:16:54.794Z,79.26
2022-11-24T16:19:22.674Z,80.07
2022-11-24T16:21:50.855Z,79.09
2022-11-24T16:24:18.646Z,79.63
2022-11-24T16:26:46.656Z,79.90
2022-11-24T16:29:17.667Z,79.31
2022-11-24T16:31:47.372Z,79.54
2022-11-24T16:34:16.394Z,79.27
2022-11-24T16:36:44.419Z,79.74
2022-11-24T16:39:18.364Z,79.97
2022-11-24T16:41:50.865Z,79.55
2022-11-24T16:44:21.577Z,80.19
2022-11-24T16:46:50.972Z,79.67
2022-11-24T16:49:22.013Z,79.62
2022-11-24T16:51:49.919Z,79.15
2022-11-24T16:54:17.799Z,79.22
2022-11-24T16:57:15.282Z,79.48
2022-11-24T16:59:47.084Z,80.59
2022-11-24T17:02:18.181Z,80.00
2022-11-24T17:04:54.650Z,79.81
2022-11-24T17:07:22.602Z,79.88
2022-11-24T17:09:50.647Z,79.52
2022-11-24T17:12:19.128Z,80.23
2022-11-24T17:15:16.500Z,80.29
2022-11-24T17:18:01.349Z,80.33
2022-11-24T17:20:27.754Z,79.96
2022-11-24T17:22:58.461Z,80.07
2022-11-24T17:25:26.435Z,80.10
2022-11-24T17:27:54.786Z,79.62
2022-11-24T17:30:31.975Z,79.94
2022-11-24T17:33:01.186Z,80.39
2022-11-24T17:35:29.341Z,80.31
2022-11-24T17:37:58.363Z,80.60
2022-11-24T17:40:29.581Z,80.88
2022-11-24T17:43:01.048Z,80.60
2022-11-24T17:45:30.570Z,80.85
2022-11-24T17:48:01.831Z,80.78
2022-11-24T17:50:30.419Z,80.71
2022-11-24T17:52:58.789Z,80.68
2022-11-24T17:55:26.831Z,80.99
2022-11-24T17:57:57.245Z,81.36
2022-11-24T18:00:27.803Z,81.41
2022-11-24T18:02:56.664Z,81.38
2022-11-24T18:05:26.103Z,81.63
2022-11-24T18:07:55.474Z,81.61
2022-11-24T18:10:29.301Z,81.14
2022-11-24T18:13:00.405Z,81.49
2022-11-24T18:15:28.333Z,81.26
2022-11-24T18:17:59.387Z,81.18
2022-11-24T18:20:30.323Z,81.55
2022-11-24T18:23:06.381Z,81.46
2022-11-24T18:25:37.176Z,81.60
2022-11-24T18:28:05.651Z,81.92
2022-11-24T18:30:34.946Z,81.93
2022-11-24T18:33:02.897Z,81.67
2022-11-24T18:35:35.114Z,81.70
2022-11-24T18:38:03.176Z,81.57
2022-11-24T18:40:31.134Z,81.75
2022-11-24T18:42:59.117Z,81.94
2022-11-24T18:45:27.382Z,82.08
2022-11-24T18:47:55.472Z,82.04
2022-11-24T18:50:29.510Z,82.15
2022-11-24T18:53:02.345Z,82.04
2022-11-24T18:55:32.778Z,82.27
2022-11-24T18:58:00.678Z,82.61
2022-11-24T19:00:28.613Z,82.56
2022-11-24T19:02:57.527Z,82.45
2022-11-24T19:05:25.498Z,82.25
2022-11-24T19:07:53.718Z,82.26
2022-11-24T19:10:23.144Z,82.40
2022-11-24T19:12:51.017Z,82.35
2022-11-24T19:15:22.065Z,82.70
2022-11-24T19:17:50.040Z,82.74
2022-11-24T19:20:18.093Z,82.88
2022-11-24T19:22:49.699Z,83.01
2022-11-24T19:25:24.919Z,82.91
2022-11-24T19:27:57.046Z,82.58
2022-11-24T19:30:29.172Z,83.03
2022-11-24T19:32:57.427Z,83.29
2022-11-24T19:35:25.417Z,82.83
2022-11-24T19:37:53.530Z,83.17
2022-11-24T19:40:21.399Z,82.94
2022-11-24T19:42:49.304Z,83.32
2022-11-24T19:45:21.741Z,83.07
2022-11-24T19:47:52.054Z,83.16
2022-11-24T19:50:22.294Z,83.01
2022-11-24T19:52:50.156Z,82.73
2022-11-24T19:55:18.268Z,83.36
2022-11-24T19:57:46.280Z,82.87
2022-11-24T20:00:17.788Z,83.09
2022-11-24T20:02:47.394Z,83.36
2022-11-24T20:05:15.359Z,83.26
2022-11-24T20:07:43.601Z,83.41
2022-11-24T20:10:11.780Z,83.99
2022-11-24T20:12:41.102Z,83.55
2022-11-24T20:15:10.382Z,83.26
2022-11-24T20:17:38.359Z,83.52
2022-11-24T20:20:08.593Z,83.36
2022-11-24T20:22:36.528Z,83.84
2022-11-24T20:25:04.904Z,83.65
2022-11-24T20:27:32.879Z,83.42
2022-11-24T20:30:00.917Z,83.64
2022-11-24T20:32:28.937Z,83.86
2022-11-24T20:35:18.085Z,83.47
2022-11-24T20:37:49.941Z,83.32
2022-11-24T20:40:19.095Z,83.68
2022-11-24T20:42:53.165Z,83.60
2022-11-24T20:45:22.742Z,84.04
2022-11-24T20:47:56.584Z,83.83
2022-11-24T20:50:24.639Z,83.94
2022-11-24T20:52:53.858Z,83.57
2022-11-24T20:55:21.811Z,83.63
2022-11-24T20:57:50.009Z,84.01
2022-11-24T21:00:18.382Z,83.98
2022-11-24T21:02:46.363Z,84.20
2022-11-24T21:05:17.408Z,83.78
2022-11-24T21:07:45.314Z,84.01
2022-11-24T21:10:21.625Z,83.79
2022-11-24T21:12:52.574Z,84.23
2022-11-24T21:15:20.542Z,84.11
2022-11-24T21:17:48.439Z,83.70
2022-11-24T21:20:19.123Z,83.70
2022-11-24T21:22:47.142Z,83.75
2022-11-24T21:25:15.205Z,84.02
2022-11-24T21:27:44.389Z,84.01
2022-11-24T21:30:13.486Z,83.83
2022-11-24T21:32:44.729Z,83.45
2022-11-24T21:35:12.589Z,83.50
2022-11-24T21:37:52.402Z,83.07
2022-11-24T21:40:24.286Z,83.95
2022-11-24T21:42:54.208Z,83.60
2022-11-24T21:45:29.587Z,83.85
2022-11-24T21:48:01.023Z,83.38
2022-11-24T21:50:32.988Z,84.02
2022-11-24T21:53:03.602Z,83.49
2022-11-24T21:55:32.494Z,83.24
2022-11-24T21:58:08.292Z,83.95
2022-11-24T22:00:36.147Z,83.83
2022-11-24T22:03:04.033Z,84.05
2022-11-24T22:05:32.544Z,83.63
2022-11-24T22:08:03.165Z,83.23
2022-11-24T22:10:31.577Z,84.11
2022-11-24T22:13:02.251Z,83.54
2022-11-24T22:15:31.600Z,84.12
2022-11-24T22:18:02.613Z,84.03
2022-11-24T22:20:30.683Z,84.20
2022-11-24T22:22:58.530Z,83.69
2022-11-24T22:25:26.879Z,83.26
2022-11-24T22:27:54.976Z,84.23
2022-11-24T22:30:22.798Z,83.63
2022-11-24T22:32:51.957Z,83.41
2022-11-24T22:35:19.797Z,83.32
2022-11-24T22:37:47.660Z,83.07
2022-11-24T22:40:15.674Z,83.61
2022-11-24T22:42:43.455Z,83.36
2022-11-24T22:45:11.821Z,83.68
2022-11-24T22:47:39.628Z,83.67
2022-11-24T22:50:10.071Z,84.15
2022-11-24T22:52:40.383Z,84.06
2022-11-24T22:55:08.846Z,83.48
2022-11-24T22:57:36.661Z,83.74
2022-11-24T23:00:05.375Z,83.25
2022-11-24T23:02:33.355Z,84.10
2022-11-24T23:05:01.161Z,84.19
2022-11-24T23:07:30.461Z,83.15
2022-11-24T23:09:58.439Z,84.04
2022-11-24T23:12:26.528Z,83.33
2022-11-24T23:14:55.611Z,84.01
2022-11-24T23:17:23.805Z,83.67
2022-11-24T23:19:51.968Z,83.11
2022-11-24T23:22:19.891Z,84.22
2022-11-24T23:24:49.330Z,84.24
2022-11-24T23:27:17.225Z,83.99
2022-11-24T23:29:45.039Z,83.61
2022-11-24T23:32:12.789Z,83.81
2022-11-24T23:34:40.962Z,83.61
2022-11-24T23:37:08.765Z,83.46
2022-11-24T23:39:36.503Z,83.79
2022-11-24T23:42:05.967Z,83.51
2022-11-24T23:44:36.413Z,84.05
2022-11-24T23:47:04.422Z,83.78
2022-11-24T23:49:32.637Z,83.82
2022-11-24T23:52:00.449Z,83.49
2022-11-24T23:54:28.415Z,83.96
2022-11-24T23:56:56.305Z,83.98
2022-11-24T23:59:26.871Z,83.20
